KBKL/BKL METAR and TAF weather

Enter ICAO airport designator
Station Type Date Time Source
KBKL METAR 2021/07/24 18:53 UTC NOAA

KBKL 241853Z 16011G21KT 9SM FEW032 29/21 A2994 RMK AO2 SLP135 T02890211


Station Type Date Time Source
KBKL Decoded METAR 2021/07/24 18:53 UTC NOAA

CLEVELAND BURKE LAKEFRONT, OH, United States (KBKL) 41-32N 81-40W 184M
Jul 24, 2021 - 02:53 PM EDT / 2021.07.24 1853 UTC
Wind: from the SSE (160 degrees) at 13 MPH (11 KT) gusting to 24 MPH (21 KT):0
Visibility: 9 mile(s):0
Sky conditions: mostly clear
Temperature: 84.0 F (28.9 C)
Dew Point: 70.0 F (21.1 C)
Relative Humidity: 62%
Pressure (altimeter): 29.94 in. Hg (1013 hPa)
ob: KBKL 241853Z 16011G21KT 9SM FEW032 29/21 A2994 RMK AO2 SLP135 T02890211
cycle: 19

Station Type Date Time Source
KBKL TAF UTC NOAA

Error!

Example: see airport list